sensor_id;sensor_type;location;lat;lon;timestamp;temperature;humidity
3542;DHT22;1785;47.388;8.538;2022-10-30T00:01:52;17.20;99.90
3542;DHT22;1785;47.388;8.538;2022-10-30T00:04:18;17.20;99.90
3542;DHT22;1785;47.388;8.538;2022-10-30T00:06:45;17.10;99.90
3542;DHT22;1785;47.388;8.538;2022-10-30T00:09:12;17.20;99.90
3542;DHT22;1785;47.388;8.538;2022-10-30T00:11:39;17.10;99.90
3542;DHT22;1785;47.388;8.538;2022-10-30T00:14:05;17.10;99.90
3542;DHT22;1785;47.388;8.538;2022-10-30T00:16:32;17.00;99.90
3542;DHT22;1785;47.388;8.538;2022-10-30T00:18:59;17.00;99.90
3542;DHT22;1785;47.388;8.538;2022-10-30T00:21:25;16.90;99.90
3542;DHT22;1785;47.388;8.538;2022-10-30T00:23:53;16.90;99.90
3542;DHT22;1785;47.388;8.538;2022-10-30T00:26:21;16.90;99.90
3542;DHT22;1785;47.388;8.538;2022-10-30T00:28:49;17.00;99.90
3542;DHT22;1785;47.388;8.538;2022-10-30T00:31:16;17.00;99.90
3542;DHT22;1785;47.388;8.538;2022-10-30T00:33:43;16.90;99.90
3542;DHT22;1785;47.388;8.538;2022-10-30T00:36:10;16.90;99.90
3542;DHT22;1785;47.388;8.538;2022-10-30T00:38:37;17.00;99.90
3542;DHT22;1785;47.388;8.538;2022-10-30T00:41:03;16.90;99.90
3542;DHT22;1785;47.388;8.538;2022-10-30T00:43:33;16.90;99.90
3542;DHT22;1785;47.388;8.538;2022-10-30T00:46:03;17.00;99.90
3542;DHT22;1785;47.388;8.538;2022-10-30T00:48:31;17.00;99.90
3542;DHT22;1785;47.388;8.538;2022-10-30T00:50:59;17.10;99.90
3542;DHT22;1785;47.388;8.538;2022-10-30T00:53:28;17.00;99.90
3542;DHT22;1785;47.388;8.538;2022-10-30T00:55:57;17.00;99.90
3542;DHT22;1785;47.388;8.538;2022-10-30T00:58:29;16.90;99.90
3542;DHT22;1785;47.388;8.538;2022-10-30T01:00:59;16.90;99.90
3542;DHT22;1785;47.388;8.538;2022-10-30T01:03:28;17.00;99.90
3542;DHT22;1785;47.388;8.538;2022-10-30T01:05:57;17.00;99.90
3542;DHT22;1785;47.388;8.538;2022-10-30T01:08:25;17.00;99.90
3542;DHT22;1785;47.388;8.538;2022-10-30T01:10:52;17.00;99.90
3542;DHT22;1785;47.388;8.538;2022-10-30T01:13:22;17.00;99.90
3542;DHT22;1785;47.388;8.538;2022-10-30T01:16:00;16.90;99.90
3542;DHT22;1785;47.388;8.538;2022-10-30T01:18:37;16.90;99.90
3542;DHT22;1785;47.388;8.538;2022-10-30T01:21:16;16.80;99.90
3542;DHT22;1785;47.388;8.538;2022-10-30T01:23:55;16.80;99.90
3542;DHT22;1785;47.388;8.538;2022-10-30T01:26:32;16.70;99.90
3542;DHT22;1785;47.388;8.538;2022-10-30T01:29:17;16.60;99.90
3542;DHT22;1785;47.388;8.538;2022-10-30T01:31:58;16.60;99.90
3542;DHT22;1785;47.388;8.538;2022-10-30T01:34:34;16.60;99.90
3542;DHT22;1785;47.388;8.538;2022-10-30T01:37:05;16.60;99.90
3542;DHT22;1785;47.388;8.538;2022-10-30T01:39:35;16.70;99.90
3542;DHT22;1785;47.388;8.538;2022-10-30T01:42:08;16.70;99.90
3542;DHT22;1785;47.388;8.538;2022-10-30T01:44:35;16.70;99.90
3542;DHT22;1785;47.388;8.538;2022-10-30T01:47:19;16.60;99.90
3542;DHT22;1785;47.388;8.538;2022-10-30T01:50:08;16.70;99.90
3542;DHT22;1785;47.388;8.538;2022-10-30T01:52:46;16.60;99.90
3542;DHT22;1785;47.388;8.538;2022-10-30T01:55:21;16.60;99.90
3542;DHT22;1785;47.388;8.538;2022-10-30T01:57:54;16.50;99.90
3542;DHT22;1785;47.388;8.538;2022-10-30T02:00:23;16.60;99.90
3542;DHT22;1785;47.388;8.538;2022-10-30T02:02:52;16.60;99.90
3542;DHT22;1785;47.388;8.538;2022-10-30T02:05:24;16.50;99.90
3542;DHT22;1785;47.388;8.538;2022-10-30T02:07:52;16.50;99.90
3542;DHT22;1785;47.388;8.538;2022-10-30T02:10:18;16.50;99.90
3542;DHT22;1785;47.388;8.538;2022-10-30T02:12:48;16.60;99.90
3542;DHT22;1785;47.388;8.538;2022-10-30T02:15:15;16.60;99.90
3542;DHT22;1785;47.388;8.538;2022-10-30T02:17:42;16.40;99.90
3542;DHT22;1785;47.388;8.538;2022-10-30T02:20:14;16.00;99.90
3542;DHT22;1785;47.388;8.538;2022-10-30T02:22:41;15.90;99.90
3542;DHT22;1785;47.388;8.538;2022-10-30T02:25:08;16.00;99.90
3542;DHT22;1785;47.388;8.538;2022-10-30T02:27:35;16.10;99.90
3542;DHT22;1785;47.388;8.538;2022-10-30T02:30:01;16.40;99.90
3542;DHT22;1785;47.388;8.538;2022-10-30T02:32:27;16.40;99.90
3542;DHT22;1785;47.388;8.538;2022-10-30T02:34:54;16.40;99.90
3542;DHT22;1785;47.388;8.538;2022-10-30T02:37:21;16.30;99.90
3542;DHT22;1785;47.388;8.538;2022-10-30T02:39:49;16.00;99.90
3542;DHT22;1785;47.388;8.538;2022-10-30T02:42:16;16.00;99.90
3542;DHT22;1785;47.388;8.538;2022-10-30T02:44:42;16.00;99.90
3542;DHT22;1785;47.388;8.538;2022-10-30T02:47:08;16.10;99.90
3542;DHT22;1785;47.388;8.538;2022-10-30T02:49:36;16.10;99.90
3542;DHT22;1785;47.388;8.538;2022-10-30T02:52:05;16.00;99.90
3542;DHT22;1785;47.388;8.538;2022-10-30T02:54:33;15.60;99.90
3542;DHT22;1785;47.388;8.538;2022-10-30T02:56:59;15.40;99.90
3542;DHT22;1785;47.388;8.538;2022-10-30T02:59:25;15.40;99.90
3542;DHT22;1785;47.388;8.538;2022-10-30T03:01:52;15.20;99.90
3542;DHT22;1785;47.388;8.538;2022-10-30T03:04:18;15.30;99.90
3542;DHT22;1785;47.388;8.538;2022-10-30T03:06:44;15.20;99.90
3542;DHT22;1785;47.388;8.538;2022-10-30T03:09:11;15.30;99.90
3542;DHT22;1785;47.388;8.538;2022-10-30T03:11:39;15.50;99.90
3542;DHT22;1785;47.388;8.538;2022-10-30T03:14:05;15.70;99.90
3542;DHT22;1785;47.388;8.538;2022-10-30T03:16:32;15.80;99.90
3542;DHT22;1785;47.388;8.538;2022-10-30T03:18:58;15.70;99.90
3542;DHT22;1785;47.388;8.538;2022-10-30T03:21:26;15.70;99.90
3542;DHT22;1785;47.388;8.538;2022-10-30T03:23:53;15.70;99.90
3542;DHT22;1785;47.388;8.538;2022-10-30T03:26:20;15.70;99.90
3542;DHT22;1785;47.388;8.538;2022-10-30T03:28:48;15.80;99.90
3542;DHT22;1785;47.388;8.538;2022-10-30T03:31:17;15.80;99.90
3542;DHT22;1785;47.388;8.538;2022-10-30T03:33:44;15.80;99.90
3542;DHT22;1785;47.388;8.538;2022-10-30T03:36:12;15.80;99.90
3542;DHT22;1785;47.388;8.538;2022-10-30T03:38:39;15.80;99.90
3542;DHT22;1785;47.388;8.538;2022-10-30T03:41:06;15.80;99.90
3542;DHT22;1785;47.388;8.538;2022-10-30T03:43:32;15.80;99.90
3542;DHT22;1785;47.388;8.538;2022-10-30T03:46:00;15.80;99.90
3542;DHT22;1785;47.388;8.538;2022-10-30T03:48:28;15.80;99.90
3542;DHT22;1785;47.388;8.538;2022-10-30T03:50:55;15.80;99.90
3542;DHT22;1785;47.388;8.538;2022-10-30T03:53:23;15.80;99.90
3542;DHT22;1785;47.388;8.538;2022-10-30T03:55:51;15.90;99.90
3542;DHT22;1785;47.388;8.538;2022-10-30T03:58:18;16.00;99.90
3542;DHT22;1785;47.388;8.538;2022-10-30T04:00:44;16.00;99.90
3542;DHT22;1785;47.388;8.538;2022-10-30T04:03:11;15.50;99.90
3542;DHT22;1785;47.388;8.538;2022-10-30T04:05:37;15.30;99.90
3542;DHT22;1785;47.388;8.538;2022-10-30T04:08:05;15.10;99.90
3542;DHT22;1785;47.388;8.538;2022-10-30T04:10:33;14.90;99.90
3542;DHT22;1785;47.388;8.538;2022-10-30T04:13:00;14.60;99.90
3542;DHT22;1785;47.388;8.538;2022-10-30T04:15:27;14.60;99.90
3542;DHT22;1785;47.388;8.538;2022-10-30T04:17:53;14.60;99.90
3542;DHT22;1785;47.388;8.538;2022-10-30T04:20:22;14.80;99.90
3542;DHT22;1785;47.388;8.538;2022-10-30T04:22:53;15.00;99.90
3542;DHT22;1785;47.388;8.538;2022-10-30T04:25:20;15.20;99.90
3542;DHT22;1785;47.388;8.538;2022-10-30T04:27:47;15.30;99.90
3542;DHT22;1785;47.388;8.538;2022-10-30T04:30:14;15.40;99.90
3542;DHT22;1785;47.388;8.538;2022-10-30T04:32:45;15.50;99.90
3542;DHT22;1785;47.388;8.538;2022-10-30T04:35:12;15.40;99.90
3542;DHT22;1785;47.388;8.538;2022-10-30T04:37:39;15.40;99.90
3542;DHT22;1785;47.388;8.538;2022-10-30T04:40:07;15.10;99.90
3542;DHT22;1785;47.388;8.538;2022-10-30T04:42:34;15.00;99.90
3542;DHT22;1785;47.388;8.538;2022-10-30T04:45:00;14.90;99.90
3542;DHT22;1785;47.388;8.538;2022-10-30T04:47:28;14.80;99.90
3542;DHT22;1785;47.388;8.538;2022-10-30T04:49:55;14.90;99.90
3542;DHT22;1785;47.388;8.538;2022-10-30T04:52:21;15.10;99.90
3542;DHT22;1785;47.388;8.538;2022-10-30T04:54:48;15.10;99.90
3542;DHT22;1785;47.388;8.538;2022-10-30T04:57:15;15.20;99.90
3542;DHT22;1785;47.388;8.538;2022-10-30T04:59:41;15.20;99.90
3542;DHT22;1785;47.388;8.538;2022-10-30T05:02:08;15.30;99.90
3542;DHT22;1785;47.388;8.538;2022-10-30T05:04:34;15.30;99.90
3542;DHT22;1785;47.388;8.538;2022-10-30T05:07:01;15.40;99.90
3542;DHT22;1785;47.388;8.538;2022-10-30T05:09:28;15.50;99.90
3542;DHT22;1785;47.388;8.538;2022-10-30T05:11:55;15.40;99.90
3542;DHT22;1785;47.388;8.538;2022-10-30T05:14:21;15.30;99.90
3542;DHT22;1785;47.388;8.538;2022-10-30T05:16:48;15.20;99.90
3542;DHT22;1785;47.388;8.538;2022-10-30T05:19:15;15.10;99.90
3542;DHT22;1785;47.388;8.538;2022-10-30T05:21:41;14.90;99.90
3542;DHT22;1785;47.388;8.538;2022-10-30T05:24:08;14.60;99.90
3542;DHT22;1785;47.388;8.538;2022-10-30T05:26:34;14.80;99.90
3542;DHT22;1785;47.388;8.538;2022-10-30T05:29:02;14.90;99.90
3542;DHT22;1785;47.388;8.538;2022-10-30T05:31:28;14.80;99.90
3542;DHT22;1785;47.388;8.538;2022-10-30T05:33:54;15.00;99.90
3542;DHT22;1785;47.388;8.538;2022-10-30T05:36:21;15.00;99.90
3542;DHT22;1785;47.388;8.538;2022-10-30T05:38:47;15.10;99.90
3542;DHT22;1785;47.388;8.538;2022-10-30T05:41:13;15.10;99.90
3542;DHT22;1785;47.388;8.538;2022-10-30T05:43:40;15.20;99.90
3542;DHT22;1785;47.388;8.538;2022-10-30T05:46:07;15.20;99.90
3542;DHT22;1785;47.388;8.538;2022-10-30T05:48:34;15.30;99.90
3542;DHT22;1785;47.388;8.538;2022-10-30T05:51:00;15.20;99.90
3542;DHT22;1785;47.388;8.538;2022-10-30T05:53:27;15.10;99.90
3542;DHT22;1785;47.388;8.538;2022-10-30T05:55:55;14.90;99.90
3542;DHT22;1785;47.388;8.538;2022-10-30T05:58:22;14.90;99.90
3542;DHT22;1785;47.388;8.538;2022-10-30T06:00:48;14.70;99.90
3542;DHT22;1785;47.388;8.538;2022-10-30T06:03:16;14.70;99.90
3542;DHT22;1785;47.388;8.538;2022-10-30T06:05:44;14.70;99.90
3542;DHT22;1785;47.388;8.538;2022-10-30T06:08:11;14.30;99.90
3542;DHT22;1785;47.388;8.538;2022-10-30T06:10:37;13.90;99.90
3542;DHT22;1785;47.388;8.538;2022-10-30T06:13:05;14.00;99.90
3542;DHT22;1785;47.388;8.538;2022-10-30T06:15:32;14.30;99.90
3542;DHT22;1785;47.388;8.538;2022-10-30T06:17:59;14.40;99.90
3542;DHT22;1785;47.388;8.538;2022-10-30T06:20:27;14.30;99.90
3542;DHT22;1785;47.388;8.538;2022-10-30T06:22:55;13.70;99.90
3542;DHT22;1785;47.388;8.538;2022-10-30T06:25:22;13.50;99.90
3542;DHT22;1785;47.388;8.538;2022-10-30T06:27:48;13.80;99.90
3542;DHT22;1785;47.388;8.538;2022-10-30T06:30:15;14.00;99.90
3542;DHT22;1785;47.388;8.538;2022-10-30T06:32:43;14.20;99.90
3542;DHT22;1785;47.388;8.538;2022-10-30T06:35:09;14.30;99.90
3542;DHT22;1785;47.388;8.538;2022-10-30T06:37:37;14.40;99.90
3542;DHT22;1785;47.388;8.538;2022-10-30T06:40:05;14.50;99.90
3542;DHT22;1785;47.388;8.538;2022-10-30T06:42:32;14.50;99.90
3542;DHT22;1785;47.388;8.538;2022-10-30T06:44:58;14.30;99.90
3542;DHT22;1785;47.388;8.538;2022-10-30T06:47:24;13.80;99.90
3542;DHT22;1785;47.388;8.538;2022-10-30T06:49:51;13.80;99.90
3542;DHT22;1785;47.388;8.538;2022-10-30T06:52:17;13.90;99.90
3542;DHT22;1785;47.388;8.538;2022-10-30T06:54:49;13.80;99.90
3542;DHT22;1785;47.388;8.538;2022-10-30T06:57:15;13.40;99.90
3542;DHT22;1785;47.388;8.538;2022-10-30T06:59:42;13.30;99.90
3542;DHT22;1785;47.388;8.538;2022-10-30T07:02:11;13.40;99.90
3542;DHT22;1785;47.388;8.538;2022-10-30T07:04:38;13.50;99.90
3542;DHT22;1785;47.388;8.538;2022-10-30T07:07:05;13.60;99.90
3542;DHT22;1785;47.388;8.538;2022-10-30T07:09:32;13.20;99.90
3542;DHT22;1785;47.388;8.538;2022-10-30T07:12:00;13.60;99.90
3542;DHT22;1785;47.388;8.538;2022-10-30T07:14:26;13.90;99.90
3542;DHT22;1785;47.388;8.538;2022-10-30T07:16:54;14.20;99.90
3542;DHT22;1785;47.388;8.538;2022-10-30T07:19:20;14.00;99.90
3542;DHT22;1785;47.388;8.538;2022-10-30T07:21:47;13.70;99.90
3542;DHT22;1785;47.388;8.538;2022-10-30T07:24:14;13.60;99.90
3542;DHT22;1785;47.388;8.538;2022-10-30T07:26:40;13.60;99.90
3542;DHT22;1785;47.388;8.538;2022-10-30T07:29:08;13.80;99.90
3542;DHT22;1785;47.388;8.538;2022-10-30T07:31:34;13.90;99.90
3542;DHT22;1785;47.388;8.538;2022-10-30T07:34:01;14.10;99.90
3542;DHT22;1785;47.388;8.538;2022-10-30T07:36:28;14.40;99.90
3542;DHT22;1785;47.388;8.538;2022-10-30T07:38:54;14.20;99.90
3542;DHT22;1785;47.388;8.538;2022-10-30T07:41:21;14.20;99.90
3542;DHT22;1785;47.388;8.538;2022-10-30T07:43:48;14.30;99.90
3542;DHT22;1785;47.388;8.538;2022-10-30T07:46:15;14.00;99.90
3542;DHT22;1785;47.388;8.538;2022-10-30T07:48:42;13.90;99.90
3542;DHT22;1785;47.388;8.538;2022-10-30T07:51:08;13.80;99.90
3542;DHT22;1785;47.388;8.538;2022-10-30T07:53:36;13.60;99.90
3542;DHT22;1785;47.388;8.538;2022-10-30T07:56:03;13.60;99.90
3542;DHT22;1785;47.388;8.538;2022-10-30T07:58:30;13.80;99.90
3542;DHT22;1785;47.388;8.538;2022-10-30T08:00:57;14.10;99.90
3542;DHT22;1785;47.388;8.538;2022-10-30T08:03:25;14.30;99.90
3542;DHT22;1785;47.388;8.538;2022-10-30T08:05:52;14.40;99.90
3542;DHT22;1785;47.388;8.538;2022-10-30T08:08:18;14.40;99.90
3542;DHT22;1785;47.388;8.538;2022-10-30T08:10:45;14.60;99.90
3542;DHT22;1785;47.388;8.538;2022-10-30T08:13:11;14.70;99.90
3542;DHT22;1785;47.388;8.538;2022-10-30T08:15:41;14.70;99.90
3542;DHT22;1785;47.388;8.538;2022-10-30T08:18:08;14.90;99.90
3542;DHT22;1785;47.388;8.538;2022-10-30T08:20:35;14.80;99.90
3542;DHT22;1785;47.388;8.538;2022-10-30T08:23:02;14.70;99.90
3542;DHT22;1785;47.388;8.538;2022-10-30T08:25:30;14.70;99.90
3542;DHT22;1785;47.388;8.538;2022-10-30T08:27:58;14.50;99.90
3542;DHT22;1785;47.388;8.538;2022-10-30T08:30:28;14.70;99.90
3542;DHT22;1785;47.388;8.538;2022-10-30T08:32:56;14.80;99.90
3542;DHT22;1785;47.388;8.538;2022-10-30T08:35:23;15.00;99.90
3542;DHT22;1785;47.388;8.538;2022-10-30T08:37:54;14.90;99.90
3542;DHT22;1785;47.388;8.538;2022-10-30T08:40:20;15.00;99.90
3542;DHT22;1785;47.388;8.538;2022-10-30T08:42:49;15.30;99.90
3542;DHT22;1785;47.388;8.538;2022-10-30T08:45:16;15.40;99.90
3542;DHT22;1785;47.388;8.538;2022-10-30T08:47:42;15.60;99.90
3542;DHT22;1785;47.388;8.538;2022-10-30T08:50:09;15.90;99.90
3542;DHT22;1785;47.388;8.538;2022-10-30T08:52:35;16.10;99.90
3542;DHT22;1785;47.388;8.538;2022-10-30T08:55:02;16.20;99.90
3542;DHT22;1785;47.388;8.538;2022-10-30T08:57:34;16.20;99.90
3542;DHT22;1785;47.388;8.538;2022-10-30T09:00:00;16.20;99.90
3542;DHT22;1785;47.388;8.538;2022-10-30T09:02:27;16.20;99.90
3542;DHT22;1785;47.388;8.538;2022-10-30T09:04:53;16.30;99.90
3542;DHT22;1785;47.388;8.538;2022-10-30T09:07:20;16.30;99.90
3542;DHT22;1785;47.388;8.538;2022-10-30T09:09:46;16.30;99.90
3542;DHT22;1785;47.388;8.538;2022-10-30T09:12:13;16.10;99.90
3542;DHT22;1785;47.388;8.538;2022-10-30T09:14:41;16.20;99.90
3542;DHT22;1785;47.388;8.538;2022-10-30T09:17:07;16.20;99.90
3542;DHT22;1785;47.388;8.538;2022-10-30T09:19:34;16.20;99.90
3542;DHT22;1785;47.388;8.538;2022-10-30T09:22:00;16.30;99.90
3542;DHT22;1785;47.388;8.538;2022-10-30T09:24:27;16.40;99.90
3542;DHT22;1785;47.388;8.538;2022-10-30T09:26:54;16.30;99.90
3542;DHT22;1785;47.388;8.538;2022-10-30T09:29:21;16.00;99.90
3542;DHT22;1785;47.388;8.538;2022-10-30T09:31:48;15.80;99.90
3542;DHT22;1785;47.388;8.538;2022-10-30T09:34:16;15.90;99.90
3542;DHT22;1785;47.388;8.538;2022-10-30T09:36:42;16.00;99.90
3542;DHT22;1785;47.388;8.538;2022-10-30T09:39:11;16.00;99.90
3542;DHT22;1785;47.388;8.538;2022-10-30T09:42:06;15.90;99.90
3542;DHT22;1785;47.388;8.538;2022-10-30T09:44:43;15.80;99.90
3542;DHT22;1785;47.388;8.538;2022-10-30T09:47:20;15.90;99.90
3542;DHT22;1785;47.388;8.538;2022-10-30T09:49:56;16.10;99.90
3542;DHT22;1785;47.388;8.538;2022-10-30T09:52:28;16.10;99.90
3542;DHT22;1785;47.388;8.538;2022-10-30T09:55:11;16.00;99.90
3542;DHT22;1785;47.388;8.538;2022-10-30T09:57:48;16.00;99.90
3542;DHT22;1785;47.388;8.538;2022-10-30T10:00:19;15.90;99.90
3542;DHT22;1785;47.388;8.538;2022-10-30T10:02:56;16.10;99.90
3542;DHT22;1785;47.388;8.538;2022-10-30T10:05:27;16.40;99.90
3542;DHT22;1785;47.388;8.538;2022-10-30T10:07:58;16.60;99.90
3542;DHT22;1785;47.388;8.538;2022-10-30T10:10:34;16.80;99.90
3542;DHT22;1785;47.388;8.538;2022-10-30T10:13:02;17.00;99.90
3542;DHT22;1785;47.388;8.538;2022-10-30T10:15:38;17.10;99.90
3542;DHT22;1785;47.388;8.538;2022-10-30T10:18:13;17.20;99.90
3542;DHT22;1785;47.388;8.538;2022-10-30T10:20:45;17.30;99.90
3542;DHT22;1785;47.388;8.538;2022-10-30T10:23:17;17.30;99.90
3542;DHT22;1785;47.388;8.538;2022-10-30T10:25:52;17.50;99.90
3542;DHT22;1785;47.388;8.538;2022-10-30T10:28:40;17.50;99.90
3542;DHT22;1785;47.388;8.538;2022-10-30T10:31:28;17.60;99.90
3542;DHT22;1785;47.388;8.538;2022-10-30T10:34:13;17.80;99.90
3542;DHT22;1785;47.388;8.538;2022-10-30T10:36:50;17.40;99.90
3542;DHT22;1785;47.388;8.538;2022-10-30T10:39:30;17.40;99.90
3542;DHT22;1785;47.388;8.538;2022-10-30T10:42:09;17.20;99.90
3542;DHT22;1785;47.388;8.538;2022-10-30T10:44:48;17.40;99.90
3542;DHT22;1785;47.388;8.538;2022-10-30T10:47:31;17.60;99.90
3542;DHT22;1785;47.388;8.538;2022-10-30T10:50:13;17.80;99.90
3542;DHT22;1785;47.388;8.538;2022-10-30T10:52:45;18.00;99.90
3542;DHT22;1785;47.388;8.538;2022-10-30T10:55:16;18.20;99.90
3542;DHT22;1785;47.388;8.538;2022-10-30T10:57:44;18.00;99.90
3542;DHT22;1785;47.388;8.538;2022-10-30T11:00:15;18.20;99.90
3542;DHT22;1785;47.388;8.538;2022-10-30T11:02:49;18.30;99.90
3542;DHT22;1785;47.388;8.538;2022-10-30T11:05:24;18.40;99.90
3542;DHT22;1785;47.388;8.538;2022-10-30T11:07:51;18.30;99.90
3542;DHT22;1785;47.388;8.538;2022-10-30T11:10:19;18.20;99.90
3542;DHT22;1785;47.388;8.538;2022-10-30T11:12:46;18.30;99.90
3542;DHT22;1785;47.388;8.538;2022-10-30T11:15:31;18.10;99.90
3542;DHT22;1785;47.388;8.538;2022-10-30T11:18:02;18.60;99.90
3542;DHT22;1785;47.388;8.538;2022-10-30T11:20:37;18.80;99.90
3542;DHT22;1785;47.388;8.538;2022-10-30T11:23:29;18.90;99.90
3542;DHT22;1785;47.388;8.538;2022-10-30T11:25:56;19.30;99.90
3542;DHT22;1785;47.388;8.538;2022-10-30T11:28:35;19.50;99.90
3542;DHT22;1785;47.388;8.538;2022-10-30T11:31:20;19.80;99.90
3542;DHT22;1785;47.388;8.538;2022-10-30T11:33:48;20.20;99.90
3542;DHT22;1785;47.388;8.538;2022-10-30T11:36:17;20.10;99.90
3542;DHT22;1785;47.388;8.538;2022-10-30T11:38:44;19.50;99.90
3542;DHT22;1785;47.388;8.538;2022-10-30T11:41:11;19.80;99.90
3542;DHT22;1785;47.388;8.538;2022-10-30T11:43:39;20.10;99.90
3542;DHT22;1785;47.388;8.538;2022-10-30T11:46:08;20.40;99.90
3542;DHT22;1785;47.388;8.538;2022-10-30T11:48:38;20.60;99.90
3542;DHT22;1785;47.388;8.538;2022-10-30T11:51:06;20.40;99.90
3542;DHT22;1785;47.388;8.538;2022-10-30T11:53:34;19.90;99.90
3542;DHT22;1785;47.388;8.538;2022-10-30T11:56:14;19.90;99.90
3542;DHT22;1785;47.388;8.538;2022-10-30T11:58:44;20.00;99.90
3542;DHT22;1785;47.388;8.538;2022-10-30T12:01:16;20.10;99.90
3542;DHT22;1785;47.388;8.538;2022-10-30T12:03:44;20.00;99.90
3542;DHT22;1785;47.388;8.538;2022-10-30T12:06:17;19.70;99.90
3542;DHT22;1785;47.388;8.538;2022-10-30T12:09:01;19.80;99.90
3542;DHT22;1785;47.388;8.538;2022-10-30T12:11:29;19.90;99.90
3542;DHT22;1785;47.388;8.538;2022-10-30T12:13:57;20.00;99.90
3542;DHT22;1785;47.388;8.538;2022-10-30T12:16:24;20.10;99.90
3542;DHT22;1785;47.388;8.538;2022-10-30T12:18:55;20.10;99.90
3542;DHT22;1785;47.388;8.538;2022-10-30T12:21:25;20.20;99.90
3542;DHT22;1785;47.388;8.538;2022-10-30T12:23:55;20.10;99.90
3542;DHT22;1785;47.388;8.538;2022-10-30T12:26:23;20.10;99.90
3542;DHT22;1785;47.388;8.538;2022-10-30T12:28:58;20.10;99.90
3542;DHT22;1785;47.388;8.538;2022-10-30T12:31:31;20.10;99.90
3542;DHT22;1785;47.388;8.538;2022-10-30T12:34:14;20.20;99.90
3542;DHT22;1785;47.388;8.538;2022-10-30T12:36:48;20.20;99.90
3542;DHT22;1785;47.388;8.538;2022-10-30T12:39:22;20.30;99.90
3542;DHT22;1785;47.388;8.538;2022-10-30T12:41:55;20.20;99.90
3542;DHT22;1785;47.388;8.538;2022-10-30T12:44:28;19.90;99.90
3542;DHT22;1785;47.388;8.538;2022-10-30T12:47:00;19.80;99.90
3542;DHT22;1785;47.388;8.538;2022-10-30T12:49:38;19.90;99.90
3542;DHT22;1785;47.388;8.538;2022-10-30T12:52:09;20.00;99.90
3542;DHT22;1785;47.388;8.538;2022-10-30T12:54:44;20.30;99.90
3542;DHT22;1785;47.388;8.538;2022-10-30T12:57:16;20.30;99.90
3542;DHT22;1785;47.388;8.538;2022-10-30T12:59:56;20.10;99.90
3542;DHT22;1785;47.388;8.538;2022-10-30T13:02:35;19.90;99.90
3542;DHT22;1785;47.388;8.538;2022-10-30T13:05:12;20.00;99.90
3542;DHT22;1785;47.388;8.538;2022-10-30T13:07:48;19.90;99.90
3542;DHT22;1785;47.388;8.538;2022-10-30T13:10:25;19.90;99.90
3542;DHT22;1785;47.388;8.538;2022-10-30T13:12:56;20.00;99.90
3542;DHT22;1785;47.388;8.538;2022-10-30T13:15:29;20.20;99.90
3542;DHT22;1785;47.388;8.538;2022-10-30T13:18:11;20.40;99.90
3542;DHT22;1785;47.388;8.538;2022-10-30T13:20:39;20.60;99.90
3542;DHT22;1785;47.388;8.538;2022-10-30T13:23:10;20.70;99.90
3542;DHT22;1785;47.388;8.538;2022-10-30T13:25:49;20.70;99.90
3542;DHT22;1785;47.388;8.538;2022-10-30T13:28:23;20.80;99.90
3542;DHT22;1785;47.388;8.538;2022-10-30T13:30:58;20.80;99.90
3542;DHT22;1785;47.388;8.538;2022-10-30T13:33:31;20.80;99.90
3542;DHT22;1785;47.388;8.538;2022-10-30T13:36:04;20.70;99.90
3542;DHT22;1785;47.388;8.538;2022-10-30T13:38:42;20.70;99.90
3542;DHT22;1785;47.388;8.538;2022-10-30T13:41:21;20.70;99.90
3542;DHT22;1785;47.388;8.538;2022-10-30T13:43:56;20.80;99.90
3542;DHT22;1785;47.388;8.538;2022-10-30T13:46:45;20.80;99.90
3542;DHT22;1785;47.388;8.538;2022-10-30T13:49:39;20.70;99.90
3542;DHT22;1785;47.388;8.538;2022-10-30T13:52:13;20.80;99.90
3542;DHT22;1785;47.388;8.538;2022-10-30T13:54:45;20.70;99.90
3542;DHT22;1785;47.388;8.538;2022-10-30T13:57:18;20.80;99.90
3542;DHT22;1785;47.388;8.538;2022-10-30T13:59:57;20.70;99.90
3542;DHT22;1785;47.388;8.538;2022-10-30T14:05:26;20.90;99.90
3542;DHT22;1785;47.388;8.538;2022-10-30T14:08:12;20.80;99.90
3542;DHT22;1785;47.388;8.538;2022-10-30T14:10:53;20.80;99.90
3542;DHT22;1785;47.388;8.538;2022-10-30T14:13:27;20.70;99.90
3542;DHT22;1785;47.388;8.538;2022-10-30T14:15:56;20.70;99.90
3542;DHT22;1785;47.388;8.538;2022-10-30T14:18:42;20.60;99.90
3542;DHT22;1785;47.388;8.538;2022-10-30T14:21:29;20.60;99.90
3542;DHT22;1785;47.388;8.538;2022-10-30T14:24:08;20.60;99.90
3542;DHT22;1785;47.388;8.538;2022-10-30T14:26:38;20.70;99.90
3542;DHT22;1785;47.388;8.538;2022-10-30T14:29:29;20.70;99.90
3542;DHT22;1785;47.388;8.538;2022-10-30T14:31:57;20.70;99.90
3542;DHT22;1785;47.388;8.538;2022-10-30T14:34:41;20.60;99.90
3542;DHT22;1785;47.388;8.538;2022-10-30T14:37:08;20.50;99.90
3542;DHT22;1785;47.388;8.538;2022-10-30T14:39:38;20.40;99.90
3542;DHT22;1785;47.388;8.538;2022-10-30T14:42:11;20.50;99.90
3542;DHT22;1785;47.388;8.538;2022-10-30T14:44:51;20.50;99.90
3542;DHT22;1785;47.388;8.538;2022-10-30T14:50:50;20.40;99.90
3542;DHT22;1785;47.388;8.538;2022-10-30T14:53:33;20.30;99.90
3542;DHT22;1785;47.388;8.538;2022-10-30T14:56:09;20.00;99.90
3542;DHT22;1785;47.388;8.538;2022-10-30T14:58:44;19.90;99.90
3542;DHT22;1785;47.388;8.538;2022-10-30T15:01:39;19.90;99.90
3542;DHT22;1785;47.388;8.538;2022-10-30T15:04:18;20.00;99.90
3542;DHT22;1785;47.388;8.538;2022-10-30T15:06:54;20.00;99.90
3542;DHT22;1785;47.388;8.538;2022-10-30T15:09:30;19.90;99.90
3542;DHT22;1785;47.388;8.538;2022-10-30T15:12:15;19.80;99.90
3542;DHT22;1785;47.388;8.538;2022-10-30T15:14:47;19.90;99.90
3542;DHT22;1785;47.388;8.538;2022-10-30T15:17:21;19.90;99.90
3542;DHT22;1785;47.388;8.538;2022-10-30T15:22:20;19.70;99.90
3542;DHT22;1785;47.388;8.538;2022-10-30T15:24:49;19.60;99.90
3542;DHT22;1785;47.388;8.538;2022-10-30T15:27:17;19.70;99.90
3542;DHT22;1785;47.388;8.538;2022-10-30T15:29:48;19.70;99.90
3542;DHT22;1785;47.388;8.538;2022-10-30T15:32:17;19.80;99.90
3542;DHT22;1785;47.388;8.538;2022-10-30T15:34:55;19.60;99.90
3542;DHT22;1785;47.388;8.538;2022-10-30T15:37:22;19.50;99.90
3542;DHT22;1785;47.388;8.538;2022-10-30T15:39:48;19.40;99.90
3542;DHT22;1785;47.388;8.538;2022-10-30T15:42:15;19.50;99.90
3542;DHT22;1785;47.388;8.538;2022-10-30T15:44:43;19.50;99.90
3542;DHT22;1785;47.388;8.538;2022-10-30T15:47:14;19.50;99.90
3542;DHT22;1785;47.388;8.538;2022-10-30T15:49:50;19.50;99.90
3542;DHT22;1785;47.388;8.538;2022-10-30T15:52:19;19.40;99.90
3542;DHT22;1785;47.388;8.538;2022-10-30T15:54:50;19.40;99.90
3542;DHT22;1785;47.388;8.538;2022-10-30T15:57:21;19.40;99.90
3542;DHT22;1785;47.388;8.538;2022-10-30T15:59:51;19.30;99.90
3542;DHT22;1785;47.388;8.538;2022-10-30T16:02:21;19.30;99.90
3542;DHT22;1785;47.388;8.538;2022-10-30T16:04:49;19.20;99.90
3542;DHT22;1785;47.388;8.538;2022-10-30T16:07:17;19.20;99.90
3542;DHT22;1785;47.388;8.538;2022-10-30T16:09:51;19.10;99.90
3542;DHT22;1785;47.388;8.538;2022-10-30T16:12:18;19.00;99.90
3542;DHT22;1785;47.388;8.538;2022-10-30T16:14:45;19.00;99.90
3542;DHT22;1785;47.388;8.538;2022-10-30T16:17:12;19.00;99.90
3542;DHT22;1785;47.388;8.538;2022-10-30T16:19:42;18.90;99.90
3542;DHT22;1785;47.388;8.538;2022-10-30T16:22:13;18.90;99.90
3542;DHT22;1785;47.388;8.538;2022-10-30T16:24:40;18.80;99.90
3542;DHT22;1785;47.388;8.538;2022-10-30T16:27:14;18.80;99.90
3542;DHT22;1785;47.388;8.538;2022-10-30T16:29:42;18.80;99.90
3542;DHT22;1785;47.388;8.538;2022-10-30T16:32:11;18.80;99.90